Flight Track Log - Related Links

Times and Time Zones

All times are in EDT time to prevent confusion due to time zone crossing. See the SWA1802 flight status page for this flight to view local times or setup timezone preferences in your user account.


Time Position Orientation Groundspeed Altitude Reporting Facility
EDT Latitude Longitude Course Direction KTS MPH feet Rate Location/Type
Fri 06:24:06 PM 41.7990 -87.7700 311° West 163 188 1,500  Level FlightAware ADS-B
Fri 06:24:12 PM 41.8010 -87.7750 298° West 164 189 1,800 1,875 Climbing FlightAware ADS-B
Fri 06:24:22 PM 41.8030 -87.7860 284° West 173 199 2,000 800 Climbing FlightAware ADS-B
Fri 06:24:42 PM 41.7980 -87.8090 254° West 216 249 2,200 1,350 Climbing FlightAware ADS-B
Fri 06:25:02 PM 41.7900 -87.8340 247° West 236 272 2,900 1,857 Climbing FlightAware ADS-B
Fri 06:25:24 PM 41.7800 -87.8660 247° West 258 297 3,500 1,350 Climbing FlightAware ADS-B
Fri 06:25:42 PM 41.7710 -87.8930 246° West 262 302 3,800 818 Climbing FlightAware ADS-B
Fri 06:26:08 PM 41.7590 -87.9320 248° West 260 299 4,100 947 Climbing FlightAware ADS-B
Fri 06:26:20 PM 41.7530 -87.9500 246° West 264 304 4,400 2,438 Climbing FlightAware ADS-B
Fri 06:26:40 PM 41.7440 -87.9790 247° West 266 306 5,400 3,000 Climbing FlightAware ADS-B
Fri 06:26:48 PM 41.7420 -87.9930 259° West 265 305 5,800 3,000 Climbing FlightAware ADS-B
Fri 06:27:08 PM 41.7500 -88.0240 289° West 268 308 6,800 3,333 Climbing FlightAware ADS-B
Fri 06:27:24 PM 41.7590 -88.0470 298° West 267 307 7,800 3,429 Climbing FlightAware ADS-B
Fri 06:27:36 PM 41.7660 -88.0640 299° West 267 307 8,400 3,167 Climbing FlightAware ADS-B
Fri 06:28:00 PM 41.7800 -88.1000 298° West 268 308 9,700 3,000 Climbing FlightAware ADS-B
Fri 06:28:28 PM 41.7950 -88.1410 296° West 274 315 11,000 2,833 Climbing FlightAware ADS-B
Fri 06:28:36 PM 41.7960 -88.1550 275° West 276 318 11,400 1,469 Climbing FlightAware ADS-B
Fri 06:29:17 PM 41.7930 -88.2240 267° West 285 328 12,200 2,000 Climbing FlightAware ADS-B
Fri 06:29:48 PM 41.7900 -88.2810 266° West 285 328 13,800 2,783 Climbing FlightAware ADS-B
Fri 06:30:26 PM 41.7860 -88.3480 265° West 291 335 15,400 2,366 Climbing FlightAware ADS-B
Fri 06:30:59 PM 41.7830 -88.4080 266° West 299 344 16,600 2,382 Climbing FlightAware ADS-B
Fri 06:31:34 PM 41.7790 -88.4740 265° West 303 349 18,100 2,301 Climbing FlightAware ADS-B
Fri 06:32:12 PM 41.7750 -88.5450 266° West 312 359 19,400 2,000 Climbing FlightAware ADS-B
Fri 06:32:52 PM 41.7710 -88.6220 266° West 320 368 20,700 2,053 Climbing FlightAware ADS-B
Fri 06:33:28 PM 41.7670 -88.6960 266° West 324 373 22,000 1,765 Climbing FlightAware ADS-B
Fri 06:34:00 PM 41.7650 -88.7600 268° West 331 381 22,700 1,147 Climbing FlightAware ADS-B
Fri 06:34:36 PM 41.7630 -88.8330 268° West 335 386 23,300 1,333 Climbing FlightAware ADS-B
Fri 06:35:12 PM 41.7610 -88.9090 268° West 341 392 24,300 1,765 Climbing FlightAware ADS-B
Fri 06:35:44 PM 41.7590 -88.9770 268° West 344 396 25,300 1,588 Climbing FlightAware ADS-B
Fri 06:36:20 PM 41.7560 -89.0540 267° West 353 406 26,100 1,167 Climbing FlightAware ADS-B
Fri 06:36:56 PM 41.7380 -89.1310 253° West 369 425 26,700 831 Climbing FlightAware ADS-B
Fri 06:37:25 PM 41.7210 -89.1910 249° West 385 443 27,000 750 Climbing FlightAware ADS-B
Fri 06:38:00 PM 41.6990 -89.2730 250° West 397 457 27,500 1,014 Climbing FlightAware ADS-B
Fri 06:38:36 PM 41.6760 -89.3580 250° West 402 463 28,200 1,114 Climbing FlightAware ADS-B
Fri 06:39:10 PM 41.6540 -89.4380 250° West 403 464 28,800 1,059 Climbing FlightAware ADS-B
Fri 06:39:44 PM 41.6330 -89.5170 250° West 407 468 29,400 1,059 Climbing FlightAware ADS-B
Fri 06:40:18 PM 41.6120 -89.5950 250° West 409 471 30,000 1,029 Climbing FlightAware ADS-B
Fri 06:40:54 PM 41.5880 -89.6820 250° West 410 472 30,600 973 Climbing FlightAware ADS-B
Fri 06:41:32 PM 41.5630 -89.7750 250° West 414 476 31,200 1,029 Climbing FlightAware ADS-B
Fri 06:42:04 PM 41.5410 -89.8510 249° West 414 476 31,800 1,147 Climbing FlightAware ADS-B
Fri 06:42:40 PM 41.5180 -89.9360 250° West 411 473 32,500 1,114 Climbing FlightAware ADS-B
Fri 06:43:14 PM 41.4950 -90.0180 249° West 409 471 33,100 1,200 Climbing FlightAware ADS-B
Fri 06:43:50 PM 41.4720 -90.1030 250° West 404 465 33,900 1,250 Climbing FlightAware ADS-B
Fri 06:44:26 PM 41.4510 -90.1790 250° West 402 463 34,600 917 Climbing FlightAware ADS-B
Fri 06:45:02 PM 41.4260 -90.2670 249° West 403 464 35,000 618 Climbing FlightAware ADS-B
Fri 06:45:34 PM 41.4050 -90.3420 250° West 405 466 35,300 794 Climbing FlightAware ADS-B
Fri 06:46:10 PM 41.3810 -90.4260 249° West 403 464 35,900 600 Climbing FlightAware ADS-B
Fri 06:46:44 PM 41.3590 -90.5020 249° West 398 458 36,000 83 Climbing FlightAware ADS-B
Fri 06:47:22 PM 41.3350 -90.5880 250° West 400 460 36,000  Level FlightAware ADS-B
Fri 06:47:51 PM 41.3160 -90.6570 250° West 402 463 36,000  Level FlightAware ADS-B
Fri 06:48:40 PM 41.2830 -90.7700 249° West 403 464 36,000  Level FlightAware ADS-B
Fri 06:49:12 PM 41.2600 -90.8470 248° West 404 465 36,000  Level FlightAware ADS-B
Fri 06:49:48 PM 41.2420 -90.9250 253° West 405 466 36,000  Level FlightAware ADS-B
Fri 06:50:24 PM 41.2290 -91.0180 260° West 406 467 36,000  Level FlightAware ADS-B
Fri 06:51:06 PM 41.2150 -91.1210 260° West 405 466 36,000  Level FlightAware ADS-B
Fri 06:51:34 PM 41.2060 -91.1870 260° West 405 466 36,000  Level FlightAware ADS-B
Fri 06:52:12 PM 41.1930 -91.2830 260° West 404 465 36,000  Level FlightAware ADS-B
Fri 06:52:50 PM 41.1800 -91.3750 259° West 403 464 36,000  Level FlightAware ADS-B
Fri 06:53:25 PM 41.1690 -91.4560 260° West 401 461 36,000  Level FlightAware ADS-B
Fri 06:54:01 PM 41.1560 -91.5450 259° West 399 459 36,000  Level FlightAware ADS-B
Fri 06:54:31 PM 41.1450 -91.6170 259° West 398 458 36,000  Level FlightAware ADS-B
Fri 06:55:09 PM 41.1330 -91.7050 260° West 398 458 36,000  Level FlightAware ADS-B
Fri 06:55:44 PM 41.1200 -91.7940 259° West 397 457 36,000  Level FlightAware ADS-B
Fri 06:56:15 PM 41.1100 -91.8640 259° West 398 458 36,000  Level FlightAware ADS-B
Fri 06:56:44 PM 41.1000 -91.9360 260° West 399 459 36,000  Level FlightAware ADS-B
Fri 06:57:23 PM 41.0860 -92.0290 259° West 400 460 36,000  Level FlightAware ADS-B
Fri 06:57:59 PM 41.1170 -91.8200 79° East 36,000  Level FlightAware ADS-B
Fri 06:58:26 PM 41.0640 -92.1800 259° West 401 461 36,000  Level FlightAware ADS-B
Fri 06:59:03 PM 41.0510 -92.2680 259° West 401 461 36,000  Level FlightAware ADS-B
Fri 06:59:26 PM 41.0430 -92.3240 259° West 401 461 36,000  Level FlightAware ADS-B
Fri 07:00:10 PM 41.0260 -92.4330 258° West 402 463 36,000  Level FlightAware ADS-B
Fri 07:00:45 PM 41.0140 -92.5150 259° West 403 464 36,000  Level FlightAware ADS-B
Fri 07:01:20 PM 41.0010 -92.5980 258° West 404 465 36,000  Level FlightAware ADS-B
Fri 07:01:57 PM 40.9870 -92.6910 259° West 405 466 36,000  Level FlightAware ADS-B
Fri 07:02:31 PM 40.9750 -92.7730 259° West 406 467 36,000  Level FlightAware ADS-B
Fri 07:03:07 PM 40.9610 -92.8610 258° West 407 468 36,000  Level FlightAware ADS-B
Fri 07:03:43 PM 40.9480 -92.9490 259° West 405 466 36,000  Level FlightAware ADS-B
Fri 07:04:15 PM 40.9350 -93.0260 257° West 403 464 36,000  Level FlightAware ADS-B
Fri 07:04:51 PM 40.9220 -93.1110 259° West 403 464 36,000  Level FlightAware ADS-B
Fri 07:05:22 PM 40.9110 -93.1830 259° West 403 464 36,000  Level FlightAware ADS-B
Fri 07:06:01 PM 40.8960 -93.2800 258° West 402 463 36,000  Level FlightAware ADS-B
Fri 07:06:32 PM 40.8840 -93.3550 258° West 402 463 36,000  Level FlightAware ADS-B
Fri 07:07:27 PM 40.8630 -93.4860 258° West 401 461 36,000  Level FlightAware ADS-B
Fri 07:08:09 PM 40.8480 -93.5760 258° West 401 461 36,000  Level FlightAware ADS-B
Fri 07:08:44 PM 40.8330 -93.6720 258° West 400 460 36,000  Level FlightAware ADS-B
Fri 07:09:15 PM 40.8210 -93.7470 258° West 401 461 36,000  Level FlightAware ADS-B
Fri 07:10:05 PM 40.8030 -93.8540 258° West 401 461 36,000  Level FlightAware ADS-B
Fri 07:10:48 PM 40.7850 -93.9660 258° West 399 459 36,000  Level FlightAware ADS-B
Fri 07:11:23 PM 40.7710 -94.0490 257° West 399 459 36,000  Level FlightAware ADS-B
Fri 07:11:55 PM 40.7630 -94.0980 258° West 399 459 36,000  Level FlightAware ADS-B
Fri 07:12:32 PM 40.7440 -94.2140 258° West 399 459 36,000  Level FlightAware ADS-B
Fri 07:13:08 PM 40.7300 -94.2990 258° West 399 459 36,000  Level FlightAware ADS-B
Fri 07:13:40 PM 40.7170 -94.3750 257° West 400 460 36,000  Level FlightAware ADS-B
Fri 07:14:20 PM 40.7000 -94.4710 257° West 401 461 36,000  Level FlightAware ADS-B
Fri 07:14:48 PM 40.6900 -94.5340 258° West 402 463 36,000  Level FlightAware ADS-B
Fri 07:15:22 PM 40.6750 -94.6180 257° West 403 464 36,000  Level FlightAware ADS-B
Fri 07:15:57 PM 40.6610 -94.6990 257° West 405 466 36,000  Level FlightAware ADS-B
Fri 07:16:34 PM 40.6460 -94.7910 258° West 406 467 36,000  Level FlightAware ADS-B
Fri 07:17:04 PM 40.6340 -94.8620 257° West 408 470 36,000  Level FlightAware ADS-B
Fri 07:17:43 PM 40.6170 -94.9560 257° West 409 471 36,000  Level FlightAware ADS-B
Fri 07:18:14 PM 40.6040 -95.0310 257° West 410 472 36,000  Level FlightAware ADS-B
Fri 07:18:52 PM 40.5880 -95.1260 258° West 412 474 36,000  Level FlightAware ADS-B
Fri 07:19:27 PM 40.5730 -95.2090 257° West 412 474 36,000  Level FlightAware ADS-B
Fri 07:20:04 PM 40.5570 -95.2990 257° West 411 473 36,000  Level FlightAware ADS-B
Fri 07:20:34 PM 40.5440 -95.3740 257° West 411 473 36,000  Level FlightAware ADS-B
Fri 07:21:11 PM 40.5280 -95.4630 257° West 409 471 36,000  Level FlightAware ADS-B
Fri 07:21:43 PM 40.5140 -95.5400 257° West 409 471 36,000  Level FlightAware ADS-B
Fri 07:22:20 PM 40.4980 -95.6300 257° West 408 470 36,000  Level FlightAware ADS-B
Fri 07:22:53 PM 40.4830 -95.7090 256° West 407 468 36,000  Level FlightAware ADS-B
Fri 07:23:34 PM 40.4650 -95.8080 257° West 407 468 36,000  Level FlightAware ADS-B
Fri 07:24:06 PM 40.4510 -95.8850 257° West 405 466 36,000  Level FlightAware ADS-B
Fri 07:24:41 PM 40.4370 -95.9630 257° West 404 465 36,000  Level FlightAware ADS-B
Fri 07:25:19 PM 40.4200 -96.0560 257° West 404 465 36,000  Level FlightAware ADS-B
Fri 07:25:55 PM 40.4040 -96.1420 256° West 404 465 36,000  Level FlightAware ADS-B
Fri 07:26:26 PM 40.3900 -96.2160 256° West 404 465 36,000  Level FlightAware ADS-B
Fri 07:27:04 PM 40.3730 -96.3060 256° West 403 464 36,000  Level FlightAware ADS-B
Fri 07:27:38 PM 40.3580 -96.3880 257° West 402 463 36,000  Level FlightAware ADS-B
Fri 07:28:11 PM 40.3430 -96.4670 256° West 403 464 36,000  Level FlightAware ADS-B
Fri 07:28:47 PM 40.3280 -96.5500 257° West 402 463 36,000  Level FlightAware ADS-B
Fri 07:29:23 PM 40.3110 -96.6350 255° West 402 463 36,000  Level FlightAware ADS-B
Fri 07:30:00 PM 40.2950 -96.7230 257° West 403 464 36,000  Level FlightAware ADS-B
Fri 07:30:32 PM 40.2800 -96.7980 255° West 404 465 36,000  Level FlightAware ADS-B
Fri 07:31:07 PM 40.2640 -96.8810 256° West 405 466 36,000  Level FlightAware ADS-B
Fri 07:31:43 PM 40.2470 -96.9680 256° West 406 467 36,000  Level FlightAware ADS-B
Fri 07:32:16 PM 40.2320 -97.0460 256° West 406 467 36,000  Level FlightAware ADS-B
Fri 07:32:50 PM 40.2170 -97.1270 256° West 405 466 36,000  Level FlightAware ADS-B
Fri 07:33:29 PM 40.1990 -97.2190 256° West 406 467 36,000  Level FlightAware ADS-B
Fri 07:34:01 PM 40.1840 -97.2920 255° West 406 467 36,000  Level FlightAware ADS-B
Fri 07:34:35 PM 40.1680 -97.3730 256° West 408 470 36,000  Level FlightAware ADS-B
Fri 07:35:11 PM 40.1530 -97.4490 256° West 409 471 36,000  Level FlightAware ADS-B
Fri 07:35:47 PM 40.1380 -97.5230 255° West 409 471 36,000  Level FlightAware ADS-B
Fri 07:36:22 PM 40.1180 -97.6290 256° West 404 465 36,000  Level FlightAware ADS-B
Fri 07:37:02 PM 40.1010 -97.7100 255° West 404 465 36,000  Level FlightAware ADS-B
Fri 07:37:38 PM 40.0860 -97.7820 255° West 404 465 36,000  Level FlightAware ADS-B
Fri 07:38:10 PM 40.0660 -97.8840 256° West 405 466 36,000  Level FlightAware ADS-B
Fri 07:38:47 PM 40.0510 -97.9590 255° West 405 466 36,000  Level FlightAware ADS-B
Fri 07:39:21 PM 40.0330 -98.0480 255° West 404 465 36,000  Level FlightAware ADS-B
Fri 07:39:59 PM 40.0140 -98.1420 255° West 402 463 36,000  Level FlightAware ADS-B
Fri 07:40:31 PM 39.9980 -98.2180 255° West 402 463 36,000  Level FlightAware ADS-B
Fri 07:41:06 PM 39.9820 -98.2980 255° West 401 461 36,000  Level FlightAware ADS-B
Fri 07:41:56 PM 39.9580 -98.4140 255° West 401 461 36,000  Level FlightAware ADS-B
Fri 07:42:40 PM 39.9390 -98.5000 254° West 401 461 36,000  Level FlightAware ADS-B
Fri 07:43:14 PM 39.9190 -98.5970 255° West 404 465 36,000  Level FlightAware ADS-B
Fri 07:43:48 PM 39.9050 -98.6640 255° West 404 465 36,000  Level FlightAware ADS-B
Fri 07:44:24 PM 39.8890 -98.7360 254° West 404 465 36,000  Level FlightAware ADS-B
Fri 07:45:01 PM 39.8730 -98.8100 254° West 404 465 36,000  Level FlightAware ADS-B
Fri 07:45:37 PM 39.8570 -98.8810 254° West 404 465 36,000  Level FlightAware ADS-B
Fri 07:46:13 PM 39.8410 -98.9530 254° West 404 465 36,000  Level FlightAware ADS-B
Fri 07:46:37 PM 39.8310 -99.0010 255° West 404 465 36,000  Level FlightAware ADS-B
Fri 07:47:13 PM 39.8150 -99.0720 254° West 404 465 36,000  Level FlightAware ADS-B
Fri 07:47:49 PM 39.7990 -99.1440 254° West 404 465 36,000  Level FlightAware ADS-B
Fri 07:48:26 PM 39.7830 -99.2170 254° West 404 465 36,000  Level FlightAware ADS-B
Fri 07:49:14 PM 39.7620 -99.3130 254° West 404 465 36,000  Level FlightAware ADS-B
Fri 07:49:50 PM 39.7460 -99.3840 254° West 404 465 36,000  Level FlightAware ADS-B
Fri 07:50:27 PM 39.7300 -99.4580 254° West 404 465 36,000  Level FlightAware ADS-B
Fri 07:51:03 PM 39.7140 -99.5290 254° West 404 465 36,000  Level FlightAware ADS-B
Fri 07:51:39 PM 39.6990 -99.6010 255° West 404 465 36,000  Level FlightAware ADS-B
Fri 07:52:15 PM 39.6830 -99.6720 254° West 404 465 36,000  Level FlightAware ADS-B
Fri 07:52:51 PM 39.6670 -99.7430 254° West 404 465 36,000  Level FlightAware ADS-B
Fri 07:53:37 PM 39.6108 -100.0278 254° West 406 467 36,000  Level Minneapolis Center
Fri 07:54:10 PM 39.5903 -100.1122 252° West 404 465 36,000  Level Denver Center
Fri 07:55:11 PM 39.5556 -100.2658 254° West 398 458 36,000  Level Denver Center
Fri 07:56:13 PM 39.5253 -100.4000 254° West 403 464 36,000  Level Denver Center
Fri 07:57:15 PM 39.4953 -100.5325 254° West 401 461 36,000  Level Denver Center
Fri 07:58:18 PM 39.4592 -100.6869 253° West 400 460 36,000  Level Denver Center
Fri 07:59:20 PM 39.4289 -100.8194 254° West 400 460 36,000 265 Level Denver Center
Fri 08:05:28 PM 39.2260 -101.6810 254° West 393 452 37,900 281 Climbing FlightAware ADS-B
Fri 08:06:05 PM 39.2090 -101.7510 253° West 393 452 37,900  Level FlightAware ADS-B
Fri 08:06:42 PM 39.1910 -101.8210 252° West 393 452 37,900 67 Level FlightAware ADS-B
Fri 08:07:34 PM 39.1590 -101.9580 253° West 396 456 38,000 67 Climbing FlightAware ADS-B
Fri 08:08:11 PM 39.1410 -102.0280 252° West 396 456 38,000  Level FlightAware ADS-B
Fri 08:08:44 PM 39.1190 -102.1230 253° West 398 458 38,000  Level FlightAware ADS-B
Fri 08:09:24 PM 39.0960 -102.2150 252° West 398 458 38,000  Level FlightAware ADS-B
Fri 08:09:56 PM 39.0790 -102.2870 253° West 398 458 38,000  Level FlightAware ADS-B
Fri 08:10:44 PM 39.0540 -102.3870 252° West 399 459 38,000  Level FlightAware ADS-B
Fri 08:11:21 PM 39.0330 -102.4740 253° West 398 458 38,000  Level FlightAware ADS-B
Fri 08:12:04 PM 39.0110 -102.5620 252° West 398 458 38,000  Level FlightAware ADS-B
Fri 08:12:42 PM 38.9870 -102.6570 252° West 397 457 38,000  Level FlightAware ADS-B
Fri 08:13:14 PM 38.9680 -102.7330 252° West 397 457 38,000  Level FlightAware ADS-B
Fri 08:13:51 PM 38.9470 -102.8150 252° West 397 457 38,000  Level FlightAware ADS-B
Fri 08:14:28 PM 38.9260 -102.8990 252° West 396 456 38,000  Level FlightAware ADS-B
Fri 08:14:58 PM 38.9090 -102.9660 252° West 395 455 38,000  Level FlightAware ADS-B
Fri 08:15:36 PM 38.8880 -103.0480 252° West 396 456 38,000  Level FlightAware ADS-B
Fri 08:16:12 PM 38.8680 -103.1290 252° West 395 455 38,000  Level FlightAware ADS-B
Fri 08:16:47 PM 38.8480 -103.2060 252° West 393 452 38,000  Level FlightAware ADS-B
Fri 08:17:20 PM 38.8290 -103.2800 252° West 392 451 38,000  Level FlightAware ADS-B
Fri 08:17:58 PM 38.8080 -103.3620 252° West 390 449 38,000  Level FlightAware ADS-B
Fri 08:18:30 PM 38.7890 -103.4350 252° West 390 449 38,000  Level FlightAware ADS-B
Fri 08:19:06 PM 38.7670 -103.5140 250° West 389 448 38,000  Level FlightAware ADS-B
Fri 08:19:42 PM 38.7370 -103.5840 241° Southwest 389 448 38,000  Level FlightAware ADS-B
Fri 08:20:18 PM 38.7050 -103.6590 241° Southwest 389 448 38,000  Level FlightAware ADS-B
Fri 08:20:52 PM 38.6750 -103.7270 241° Southwest 389 448 38,000  Level FlightAware ADS-B
Fri 08:21:26 PM 38.6430 -103.7910 237° Southwest 389 448 38,000  Level FlightAware ADS-B
Fri 08:22:02 PM 38.6080 -103.8610 237° Southwest 388 447 38,000  Level FlightAware ADS-B
Fri 08:22:38 PM 38.5730 -103.9320 238° Southwest 389 448 38,000  Level FlightAware ADS-B
Fri 08:23:10 PM 38.5420 -103.9950 238° Southwest 391 450 38,000  Level FlightAware ADS-B
Fri 08:23:46 PM 38.5080 -104.0650 238° Southwest 393 452 38,000  Level FlightAware ADS-B
Fri 08:24:28 PM 38.4710 -104.1380 237° Southwest 393 452 38,000  Level FlightAware ADS-B
Fri 08:25:00 PM 38.4380 -104.2080 239° Southwest 393 452 38,000  Level FlightAware ADS-B
Fri 08:25:36 PM 38.4030 -104.2780 237° Southwest 393 452 38,000  Level FlightAware ADS-B
Fri 08:26:12 PM 38.3670 -104.3520 238° Southwest 394 453 38,000  Level FlightAware ADS-B
Fri 08:26:50 PM 38.3300 -104.4260 238° Southwest 395 455 38,000  Level FlightAware ADS-B
Fri 08:27:22 PM 38.2990 -104.4890 238° Southwest 394 453 38,000  Level FlightAware ADS-B
Fri 08:27:58 PM 38.2650 -104.5590 238° Southwest 393 452 38,000  Level FlightAware ADS-B
Fri 08:28:36 PM 38.2310 -104.6370 241° Southwest 393 452 38,000  Level FlightAware ADS-B
Fri 08:29:08 PM 38.2100 -104.7030 248° West 393 452 38,000  Level FlightAware ADS-B
Fri 08:29:40 PM 38.1910 -104.7750 251° West 394 453 38,000  Level FlightAware ADS-B
Fri 08:30:18 PM 38.1720 -104.8550 253° West 395 455 38,000  Level FlightAware ADS-B
Fri 08:30:52 PM 38.1520 -104.9340 252° West 395 455 38,000  Level FlightAware ADS-B
Fri 08:31:24 PM 38.1340 -105.0040 252° West 395 455 38,000  Level FlightAware ADS-B
Fri 08:32:02 PM 38.1130 -105.0890 253° West 395 455 38,000  Level FlightAware ADS-B
Fri 08:32:38 PM 38.0930 -105.1680 252° West 394 453 38,000  Level FlightAware ADS-B
Fri 08:33:12 PM 38.0740 -105.2440 252° West 392 451 38,000  Level FlightAware ADS-B
Fri 08:33:48 PM 38.0540 -105.3230 252° West 393 452 38,000  Level FlightAware ADS-B
Fri 08:34:24 PM 38.0350 -105.3980 252° West 393 452 38,000  Level FlightAware ADS-B
Fri 08:35:00 PM 38.0150 -105.4800 253° West 390 449 38,000  Level FlightAware ADS-B
Fri 08:35:32 PM 37.9980 -105.5470 252° West 387 445 38,000  Level FlightAware ADS-B
Fri 08:36:08 PM 37.9780 -105.6230 252° West 385 443 38,000  Level FlightAware ADS-B
Fri 08:36:45 PM 37.9580 -105.7020 252° West 384 442 38,000  Level FlightAware ADS-B
Fri 08:37:17 PM 37.9400 -105.7740 252° West 384 442 38,000  Level FlightAware ADS-B
Fri 08:38:07 PM 37.9130 -105.8760 251° West 385 443 38,000  Level FlightAware ADS-B
Fri 08:38:42 PM 37.8930 -105.9550 252° West 387 445 38,000  Level FlightAware ADS-B
Fri 08:39:17 PM 37.8740 -106.0290 252° West 389 448 38,000  Level FlightAware ADS-B
Fri 08:39:52 PM 37.8540 -106.1060 252° West 388 447 38,000  Level FlightAware ADS-B
Fri 08:40:27 PM 37.8340 -106.1800 251° West 388 447 38,000  Level FlightAware ADS-B
Fri 08:40:57 PM 37.8170 -106.2450 252° West 389 448 38,000  Level FlightAware ADS-B
Fri 08:41:39 PM 37.7940 -106.3350 252° West 391 450 38,000  Level FlightAware ADS-B
Fri 08:42:15 PM 37.7730 -106.4140 251° West 393 452 38,000  Level FlightAware ADS-B
Fri 08:42:45 PM 37.7560 -106.4790 252° West 395 455 38,000  Level FlightAware ADS-B
Fri 08:43:22 PM 37.7340 -106.5610 251° West 395 455 38,000  Level FlightAware ADS-B
Fri 08:43:52 PM 37.7170 -106.6250 251° West 391 450 38,000  Level FlightAware ADS-B
Fri 08:44:34 PM 37.6930 -106.7160 252° West 390 449 38,000  Level FlightAware ADS-B
Fri 08:45:06 PM 37.6740 -106.7860 251° West 390 449 38,000  Level FlightAware ADS-B
Fri 08:45:43 PM 37.6540 -106.8630 252° West 391 450 38,000  Level FlightAware ADS-B
Fri 08:46:19 PM 37.6330 -106.9400 251° West 391 450 38,000  Level FlightAware ADS-B
Fri 08:46:58 PM 37.6100 -107.0230 251° West 392 451 38,000  Level FlightAware ADS-B
Fri 08:47:35 PM 37.5880 -107.1050 251° West 389 448 38,000  Level FlightAware ADS-B
Fri 08:48:10 PM 37.5680 -107.1810 252° West 388 447 38,000  Level FlightAware ADS-B
Fri 08:48:46 PM 37.5470 -107.2570 251° West 388 447 38,000  Level FlightAware ADS-B
Fri 08:49:20 PM 37.5270 -107.3310 251° West 387 445 38,000  Level FlightAware ADS-B
Fri 08:49:54 PM 37.5020 -107.4000 245° Southwest 384 442 38,000  Level FlightAware ADS-B
Fri 08:50:32 PM 37.4690 -107.4750 241° Southwest 383 441 38,000  Level FlightAware ADS-B
Fri 08:51:04 PM 37.4430 -107.5350 241° Southwest 384 442 38,000  Level FlightAware ADS-B
Fri 08:51:40 PM 37.4120 -107.6050 241° Southwest 384 442 38,000  Level FlightAware ADS-B
Fri 08:52:16 PM 37.3840 -107.6790 245° Southwest 390 449 38,000  Level FlightAware ADS-B
Fri 08:52:46 PM 37.3680 -107.7420 252° West 389 448 38,000  Level FlightAware ADS-B
Fri 08:53:22 PM 37.3460 -107.8200 250° West 386 444 38,000  Level FlightAware ADS-B
Fri 08:53:59 PM 37.3250 -107.8980 251° West 385 443 38,000  Level FlightAware ADS-B
Fri 08:54:33 PM 37.3060 -107.9690 251° West 383 441 38,000  Level FlightAware ADS-B
Fri 08:55:08 PM 37.2860 -108.0410 251° West 383 441 38,000  Level FlightAware ADS-B
Fri 08:55:50 PM 37.2610 -108.1320 251° West 383 441 38,000  Level FlightAware ADS-B
Fri 08:56:25 PM 37.2410 -108.2070 252° West 383 441 38,000  Level FlightAware ADS-B
Fri 08:57:03 PM 37.2180 -108.2880 250° West 385 443 38,000  Level FlightAware ADS-B
Fri 08:57:33 PM 37.2020 -108.3490 252° West 385 443 38,000  Level FlightAware ADS-B
Fri 08:58:09 PM 37.1810 -108.4250 251° West 387 445 38,000  Level FlightAware ADS-B
Fri 08:58:48 PM 37.1610 -108.4970 251° West 387 445 38,000  Level FlightAware ADS-B
Fri 08:59:23 PM 37.1370 -108.5810 250° West 388 447 38,000  Level FlightAware ADS-B
Fri 08:59:53 PM 37.1190 -108.6460 251° West 390 449 38,000  Level FlightAware ADS-B
Fri 09:00:41 PM 37.0940 -108.7360 251° West 390 449 38,000  Level FlightAware ADS-B
Fri 09:01:17 PM 37.0750 -108.8010 250° West 390 449 38,000  Level FlightAware ADS-B
Fri 09:01:51 PM 37.0570 -108.8620 250° West 390 449 38,000  Level FlightAware ADS-B
Fri 09:02:29 PM 37.0370 -108.9310 250° West 390 449 38,000  Level FlightAware ADS-B
Fri 09:03:06 PM 37.0180 -108.9970 250° West 390 449 38,000  Level FlightAware ADS-B
Fri 09:03:40 PM 37.0000 -109.0590 250° West 390 449 38,000  Level FlightAware ADS-B
Fri 09:04:23 PM 36.9570 -109.2200 252° West 393 452 38,000  Level FlightAware ADS-B
Fri 09:05:04 PM 36.9330 -109.3050 251° West 395 455 38,000  Level FlightAware ADS-B
Fri 09:05:39 PM 36.9100 -109.3840 250° West 396 456 38,000  Level FlightAware ADS-B
Fri 09:06:12 PM 36.8950 -109.4370 251° West 396 456 38,000  Level FlightAware ADS-B
Fri 09:06:48 PM 36.8760 -109.5030 250° West 396 456 38,000  Level FlightAware ADS-B
Fri 09:07:24 PM 36.8570 -109.5690 250° West 396 456 38,000  Level FlightAware ADS-B
Fri 09:08:01 PM 36.8370 -109.6370 250° West 396 456 38,000  Level FlightAware ADS-B
Fri 09:08:35 PM 36.8190 -109.6990 250° West 396 456 38,000  Level FlightAware ADS-B
Fri 09:09:11 PM 36.8000 -109.7650 250° West 396 456 38,000  Level FlightAware ADS-B
Fri 09:09:47 PM 36.7800 -109.8300 249° West 396 456 38,000  Level FlightAware ADS-B
Fri 09:10:24 PM 36.7610 -109.8980 251° West 396 456 38,000  Level FlightAware ADS-B
Fri 09:11:01 PM 36.7410 -109.9660 250° West 396 456 38,000  Level FlightAware ADS-B
Fri 09:11:39 PM 36.7210 -110.0350 250° West 396 456 38,000  Level FlightAware ADS-B
Fri 09:12:15 PM 36.7020 -110.1010 250° West 396 456 38,000  Level FlightAware ADS-B
Fri 09:12:48 PM 36.6410 -110.3060 250° West 396 456 38,000  Level FlightAware ADS-B
Fri 09:13:24 PM 36.6190 -110.3830 250° West 396 456 38,000  Level FlightAware ADS-B
Fri 09:13:56 PM 36.5990 -110.4500 250° West 397 457 38,000  Level FlightAware ADS-B
Fri 09:14:32 PM 36.5750 -110.5280 249° West 397 457 38,000  Level FlightAware ADS-B
Fri 09:15:08 PM 36.5530 -110.6040 250° West 399 459 38,000  Level FlightAware ADS-B
Fri 09:15:38 PM 36.5330 -110.6710 250° West 401 461 38,000  Level FlightAware ADS-B
Fri 09:16:17 PM 36.5080 -110.7540 249° West 402 463 38,000  Level FlightAware ADS-B
Fri 09:16:52 PM 36.4840 -110.8310 249° West 402 463 38,000  Level FlightAware ADS-B
Fri 09:17:24 PM 36.4640 -110.8970 249° West 402 463 38,000  Level FlightAware ADS-B
Fri 09:18:00 PM 36.4400 -110.9780 250° West 402 463 38,000  Level FlightAware ADS-B
Fri 09:18:37 PM 36.4160 -111.0550 249° West 404 465 38,000  Level FlightAware ADS-B
Fri 09:19:13 PM 36.3920 -111.1340 249° West 404 465 38,000  Level FlightAware ADS-B
Fri 09:19:44 PM 36.3720 -111.2010 250° West 404 465 38,000  Level FlightAware ADS-B
Fri 09:20:18 PM 36.3470 -111.2770 248° West 403 464 38,000  Level FlightAware ADS-B
Fri 09:20:54 PM 36.3200 -111.3520 246° West 403 464 38,000  Level FlightAware ADS-B
Fri 09:21:30 PM 36.2940 -111.4260 246° West 404 465 38,000  Level FlightAware ADS-B
Fri 09:22:00 PM 36.2710 -111.4910 246° West 405 466 38,000  Level FlightAware ADS-B
Fri 09:22:38 PM 36.2430 -111.5700 246° West 405 466 38,000  Level FlightAware ADS-B
Fri 09:23:14 PM 36.2170 -111.6450 247° West 407 468 38,000  Level FlightAware ADS-B
Fri 09:23:47 PM 36.1910 -111.7190 246° West 408 470 38,000  Level FlightAware ADS-B
Fri 09:24:23 PM 36.1640 -111.7950 246° West 409 471 38,000  Level FlightAware ADS-B
Fri 09:24:59 PM 36.1360 -111.8720 246° West 410 472 38,000  Level FlightAware ADS-B
Fri 09:25:31 PM 36.1120 -111.9400 246° West 411 473 38,000  Level FlightAware ADS-B
Fri 09:25:55 PM 36.0900 -111.9900 241° Southwest 410 472 38,000  Level FlightAware ADS-B
Fri 09:26:27 PM 36.0480 -112.0440 226° Southwest 410 472 38,000  Level FlightAware ADS-B
Fri 09:27:05 PM 35.9960 -112.1070 224° Southwest 410 472 38,000  Level FlightAware ADS-B
Fri 09:27:37 PM 35.9530 -112.1590 224° Southwest 410 472 38,000  Level FlightAware ADS-B
Fri 09:28:13 PM 35.9050 -112.2170 224° Southwest 410 472 38,000  Level FlightAware ADS-B
Fri 09:28:49 PM 35.8560 -112.2760 224° Southwest 410 472 38,000  Level FlightAware ADS-B
Fri 09:29:25 PM 35.8080 -112.3360 225° Southwest 410 472 38,000  Level FlightAware ADS-B
Fri 09:29:57 PM 35.7640 -112.3890 224° Southwest 410 472 38,000  Level FlightAware ADS-B
Fri 09:30:33 PM 35.7190 -112.4500 228° Southwest 410 472 38,000  Level FlightAware ADS-B
Fri 09:31:09 PM 35.6900 -112.5260 245° Southwest 413 475 38,000  Level FlightAware ADS-B
Fri 09:31:39 PM 35.6690 -112.5920 249° West 412 474 38,000  Level FlightAware ADS-B
Fri 09:32:11 PM 35.6470 -112.6620 249° West 412 474 38,000  Level FlightAware ADS-B
Fri 09:32:47 PM 35.6220 -112.7390 248° West 410 472 38,000  Level FlightAware ADS-B
Fri 09:33:23 PM 35.5960 -112.8180 248° West 409 471 38,000  Level FlightAware ADS-B
Fri 09:33:59 PM 35.5710 -112.8950 248° West 408 470 38,000  Level FlightAware ADS-B
Fri 09:34:31 PM 35.5490 -112.9650 249° West 407 468 38,000  Level FlightAware ADS-B
Fri 09:35:08 PM 35.5240 -113.0420 248° West 406 467 38,000  Level FlightAware ADS-B
Fri 09:35:40 PM 35.5020 -113.1100 248° West 405 466 38,000  Level FlightAware ADS-B
Fri 09:36:15 PM 35.4770 -113.1870 248° West 404 465 38,000  Level FlightAware ADS-B
Fri 09:36:52 PM 35.4520 -113.2630 248° West 404 465 38,000  Level FlightAware ADS-B
Fri 09:37:28 PM 35.4270 -113.3400 248° West 403 464 38,000  Level FlightAware ADS-B
Fri 09:38:02 PM 35.4030 -113.4130 248° West 403 464 38,000  Level FlightAware ADS-B
Fri 09:38:37 PM 35.3780 -113.4880 248° West 404 465 38,000  Level FlightAware ADS-B
Fri 09:39:11 PM 35.3540 -113.5590 248° West 404 465 38,000  Level FlightAware ADS-B
Fri 09:39:47 PM 35.3290 -113.6360 248° West 405 466 38,000  Level FlightAware ADS-B
Fri 09:40:23 PM 35.3030 -113.7120 247° West 406 467 38,000  Level FlightAware ADS-B
Fri 09:40:59 PM 35.2780 -113.7880 248° West 409 471 38,000  Level FlightAware ADS-B
Fri 09:41:31 PM 35.2550 -113.8580 248° West 410 472 38,000  Level FlightAware ADS-B
Fri 09:42:01 PM 35.2330 -113.9230 248° West 411 473 38,000  Level FlightAware ADS-B
Fri 09:42:41 PM 35.2050 -114.0080 248° West 412 474 38,000  Level FlightAware ADS-B
Fri 09:43:17 PM 35.1800 -114.0810 247° West 413 475 38,000  Level FlightAware ADS-B
Fri 09:43:54 PM 35.1520 -114.1620 247° West 411 473 38,000  Level FlightAware ADS-B
Fri 09:44:25 PM 35.1300 -114.2290 248° West 411 473 38,000  Level FlightAware ADS-B
Fri 09:45:02 PM 35.1040 -114.3050 247° West 411 473 38,000  Level FlightAware ADS-B
Fri 09:45:38 PM 35.0760 -114.3870 247° West 411 473 38,000  Level FlightAware ADS-B
Fri 09:46:11 PM 35.0520 -114.4590 248° West 409 471 38,000  Level FlightAware ADS-B
Fri 09:46:47 PM 35.0260 -114.5340 247° West 408 470 38,000  Level FlightAware ADS-B
Fri 09:47:23 PM 35.0000 -114.6100 247° West 407 468 38,000  Level FlightAware ADS-B
Fri 09:47:55 PM 34.9770 -114.6790 248° West 407 468 38,000  Level FlightAware ADS-B
Fri 09:48:32 PM 34.9500 -114.7560 247° West 406 467 38,000  Level FlightAware ADS-B
Fri 09:49:04 PM 34.9260 -114.8240 247° West 406 467 38,000  Level FlightAware ADS-B
Fri 09:49:42 PM 34.8990 -114.9040 248° West 407 468 38,000  Level FlightAware ADS-B
Fri 09:50:18 PM 34.8740 -114.9760 247° West 408 470 38,000  Level FlightAware ADS-B
Fri 09:50:54 PM 34.8460 -115.0560 247° West 407 468 38,000  Level FlightAware ADS-B
Fri 09:51:26 PM 34.8220 -115.1240 247° West 409 471 38,000 -441 Level FlightAware ADS-B
Fri 09:52:02 PM 34.7960 -115.2010 248° West 409 471 37,500 -833 Descending FlightAware ADS-B
Fri 09:52:38 PM 34.7700 -115.2750 247° West 413 475 37,000 -909 Descending FlightAware ADS-B
Fri 09:53:08 PM 34.7460 -115.3410 246° West 414 476 36,500 -971 Descending FlightAware ADS-B
Fri 09:53:46 PM 34.7190 -115.4200 247° West 419 482 35,900 -1,000 Descending FlightAware ADS-B
Fri 09:54:20 PM 34.6920 -115.4960 247° West 419 482 35,300 -957 Descending FlightAware ADS-B
Fri 09:54:55 PM 34.6660 -115.5700 247° West 422 486 34,800 -930 Descending FlightAware ADS-B
Fri 09:55:31 PM 34.6370 -115.6520 247° West 429 494 34,200 -986 Descending FlightAware ADS-B
Fri 09:56:08 PM 34.6100 -115.7270 246° West 433 498 33,600 -986 Descending FlightAware ADS-B
Fri 09:56:44 PM 34.5800 -115.8120 247° West 438 504 33,000 -985 Descending FlightAware ADS-B
Fri 09:57:15 PM 34.5550 -115.8830 247° West 443 510 32,500 -985 Descending FlightAware ADS-B
Fri 09:57:51 PM 34.5250 -115.9650 246° West 439 505 31,900 -971 Descending FlightAware ADS-B
Fri 09:58:23 PM 34.5010 -116.0320 247° West 437 503 31,400 -1,029 Descending FlightAware ADS-B
Fri 09:59:01 PM 34.4690 -116.1220 247° West 435 501 30,700 -1,068 Descending FlightAware ADS-B
Fri 09:59:36 PM 34.4410 -116.1980 246° West 430 495 30,100 -985 Descending FlightAware ADS-B
Fri 10:00:08 PM 34.4160 -116.2680 247° West 427 491 29,600 -1,014 Descending FlightAware ADS-B
Fri 10:00:47 PM 34.3850 -116.3560 247° West 425 489 28,900 -1,083 Descending FlightAware ADS-B
Fri 10:01:20 PM 34.3590 -116.4270 246° West 422 486 28,300 -640 Descending FlightAware ADS-B
Fri 10:02:02 PM 34.3290 -116.5090 246° West 421 484 28,100 -963 Descending FlightAware ADS-B
Fri 10:02:41 PM 34.2950 -116.6000 246° West 418 481 27,000 -1,417 Descending FlightAware ADS-B
Fri 10:03:14 PM 34.2700 -116.6700 247° West 411 473 26,400 -1,543 Descending FlightAware ADS-B
Fri 10:03:51 PM 34.2420 -116.7470 246° West 402 463 25,200 -2,087 Descending FlightAware ADS-B
Fri 10:04:23 PM 34.2170 -116.8140 246° West 393 452 24,000 -2,118 Descending FlightAware ADS-B
Fri 10:04:59 PM 34.1920 -116.8840 247° West 384 442 22,800 -2,000 Descending FlightAware ADS-B
Fri 10:05:35 PM 34.1650 -116.9550 245° Southwest 375 432 21,600 -1,917 Descending FlightAware ADS-B
Fri 10:06:11 PM 34.1410 -117.0220 247° West 367 422 20,500 -1,886 Descending FlightAware ADS-B
Fri 10:06:45 PM 34.1170 -117.0840 245° Southwest 362 417 19,400 -1,286 Descending FlightAware ADS-B
Fri 10:07:21 PM 34.0900 -117.1500 244° Southwest 358 412 19,000 -353 Descending FlightAware ADS-B
Fri 10:07:53 PM 34.0650 -117.2060 242° Southwest 365 420 19,000 -968 Level FlightAware ADS-B
Fri 10:08:23 PM 34.0470 -117.2630 249° West 373 429 18,000 -1,846 Descending FlightAware ADS-B
Fri 10:08:58 PM 34.0400 -117.3330 263° West 355 409 17,000 -1,324 Descending FlightAware ADS-B
Fri 10:09:31 PM 34.0340 -117.3970 264° West 326 375 16,500 -1,304 Descending FlightAware ADS-B
Fri 10:10:07 PM 34.0290 -117.4600 265° West 312 359 15,500 -1,890 Descending FlightAware ADS-B
Fri 10:10:44 PM 34.0320 -117.5220 273° West 313 360 14,200 -2,060 Descending FlightAware ADS-B
Fri 10:11:14 PM 34.0340 -117.5740 273° West 308 354 13,200 -1,881 Descending FlightAware ADS-B
Fri 10:11:51 PM 34.0280 -117.6330 263° West 303 349 12,100 -2,027 Descending FlightAware ADS-B
Fri 10:12:28 PM 34.0220 -117.7000 264° West 301 346 10,700 -2,091 Descending FlightAware ADS-B
Fri 10:12:57 PM 34.0170 -117.7460 263° West 297 342 9,800 -1,765 Descending FlightAware ADS-B
Fri 10:13:19 PM 34.0140 -117.7810 264° West 293 337 9,200 -1,429 Descending FlightAware ADS-B
Fri 10:13:39 PM 34.0110 -117.8130 264° West 281 323 8,800 -900 Descending FlightAware ADS-B
Fri 10:13:59 PM 34.0080 -117.8450 264° West 267 307 8,600 -857 Descending FlightAware ADS-B
Fri 10:14:21 PM 34.0050 -117.8750 263° West 258 297 8,200 -1,050 Descending FlightAware ADS-B
Fri 10:14:39 PM 34.0020 -117.9030 263° West 253 291 7,900 -706 Descending FlightAware ADS-B
Fri 10:14:55 PM 34.0000 -117.9240 263° West 239 275 7,800 -500 Descending FlightAware ADS-B
Fri 10:15:15 PM 33.9970 -117.9510 262° West 223 257 7,600 -818 Descending FlightAware ADS-B
Fri 10:15:39 PM 33.9940 -117.9790 263° West 212 244 7,200 -1,091 Descending FlightAware ADS-B
Fri 10:15:59 PM 33.9920 -118.0030 264° West 207 238 6,800 -1,286 Descending FlightAware ADS-B
Fri 10:16:21 PM 33.9900 -118.0280 264° West 207 238 6,300 -1,286 Descending FlightAware ADS-B
Fri 10:16:41 PM 33.9880 -118.0500 264° West 207 238 5,900 -1,200 Descending FlightAware ADS-B
Fri 10:17:01 PM 33.9850 -118.0730 261° West 204 235 5,500 -1,231 Descending FlightAware ADS-B
Fri 10:17:20 PM 33.9830 -118.0940 263° West 205 236 5,100 -1,500 Descending FlightAware ADS-B
Fri 10:17:45 PM 33.9800 -118.1220 263° West 206 237 4,400 -1,467 Descending FlightAware ADS-B
Fri 10:18:05 PM 33.9780 -118.1460 264° West 203 234 4,000 -1,200 Descending FlightAware ADS-B
Fri 10:18:25 PM 33.9760 -118.1680 264° West 200 230 3,600 -1,200 Descending FlightAware ADS-B
Fri 10:18:45 PM 33.9740 -118.1900 264° West 197 227 3,200 -1,350 Descending FlightAware ADS-B
Fri 10:19:05 PM 33.9710 -118.2120 261° West 198 228 2,700 -1,125 Descending FlightAware ADS-B
Fri 10:19:33 PM 33.9700 -118.2310 266° West 199 229 2,300 -600 Descending FlightAware ADS-B
Fri 10:19:55 PM 33.9660 -118.2660 262° West 198 228 2,200 -571 Descending FlightAware ADS-B
Fri 10:20:15 PM 33.9640 -118.2890 264° West 193 222 1,900 -947 Descending FlightAware ADS-B
Fri 10:20:33 PM 33.9620 -118.3060 262° West 182 209 1,600 -857 Descending FlightAware ADS-B
Fri 10:20:57 PM 33.9600 -118.3270 263° West 164 189 1,300 -682 Descending FlightAware ADS-B
Fri 10:21:17 PM 33.9580 -118.3430 261° West 147 169 1,100 -783 Descending FlightAware ADS-B
Fri 10:21:43 PM 33.9560 -118.3670 264° West 146 168 700 -947 Descending FlightAware ADS-B
Fri 10:21:55 PM 33.9550 -118.3770 263° West 147 169 500 -774 Descending FlightAware ADS-B
Fri 10:22:14 PM 33.9530 -118.3920 261° West 146 168 300 -245 Descending FlightAware ADS-B
Fri 10:22:44 PM 33.9510 -118.4120 263° West 146 168 300  Level FlightAware ADS-B
Fri 10:30:00 PM 33.9425 -118.4081 259° West  Level Estimated
Fri 10:31:00 PM 33.9425 -118.4081 259° West  Level Estimated

Login

Don't have an account? Register now (free) for customized features, flight alerts, and more!